sensor_id;sensor_type;location;lat;lon;timestamp;P1;durP1;ratioP1;P2;durP2;ratioP2
9940;SDS011;5009;50.656;7.188;2023-02-11T05:00:41;36.90;;;26.03;;
9940;SDS011;5009;50.656;7.188;2023-02-11T05:03:07;35.90;;;24.50;;
9940;SDS011;5009;50.656;7.188;2023-02-11T05:05:32;35.30;;;25.07;;
9940;SDS011;5009;50.656;7.188;2023-02-11T05:07:58;37.27;;;26.53;;
9940;SDS011;5009;50.656;7.188;2023-02-11T05:10:23;39.70;;;27.23;;
9940;SDS011;5009;50.656;7.188;2023-02-11T05:12:49;34.83;;;27.53;;
9940;SDS011;5009;50.656;7.188;2023-02-11T05:15:15;37.83;;;27.43;;
9940;SDS011;5009;50.656;7.188;2023-02-11T05:17:40;37.33;;;27.13;;
9940;SDS011;5009;50.656;7.188;2023-02-11T05:20:06;37.83;;;27.40;;
9940;SDS011;5009;50.656;7.188;2023-02-11T05:22:32;39.00;;;27.43;;
9940;SDS011;5009;50.656;7.188;2023-02-11T05:26:38;40.17;;;27.47;;
9940;SDS011;5009;50.656;7.188;2023-02-11T05:29:03;40.60;;;28.60;;
9940;SDS011;5009;50.656;7.188;2023-02-11T05:31:29;44.17;;;29.33;;
9940;SDS011;5009;50.656;7.188;2023-02-11T05:33:54;42.73;;;30.03;;
9940;SDS011;5009;50.656;7.188;2023-02-11T05:36:20;42.10;;;29.30;;
9940;SDS011;5009;50.656;7.188;2023-02-11T05:38:45;38.93;;;29.10;;
9940;SDS011;5009;50.656;7.188;2023-02-11T05:41:11;38.07;;;28.77;;
9940;SDS011;5009;50.656;7.188;2023-02-11T05:43:37;37.27;;;27.97;;
9940;SDS011;5009;50.656;7.188;2023-02-11T05:46:03;39.80;;;28.80;;
9940;SDS011;5009;50.656;7.188;2023-02-11T05:48:29;37.77;;;29.13;;
9940;SDS011;5009;50.656;7.188;2023-02-11T05:50:55;38.47;;;28.83;;
9940;SDS011;5009;50.656;7.188;2023-02-11T05:53:21;42.13;;;27.83;;
9940;SDS011;5009;50.656;7.188;2023-02-11T05:55:47;37.20;;;27.57;;
9940;SDS011;5009;50.656;7.188;2023-02-11T05:58:12;36.17;;;26.50;;
9940;SDS011;5009;50.656;7.188;2023-02-11T06:00:38;34.90;;;25.03;;
9940;SDS011;5009;50.656;7.188;2023-02-11T06:03:04;31.40;;;23.73;;
9940;SDS011;5009;50.656;7.188;2023-02-11T06:05:29;32.03;;;24.03;;
9940;SDS011;5009;50.656;7.188;2023-02-11T06:07:56;31.07;;;24.87;;
9940;SDS011;5009;50.656;7.188;2023-02-11T06:10:21;34.30;;;25.10;;
9940;SDS011;5009;50.656;7.188;2023-02-11T06:12:47;35.63;;;27.27;;
9940;SDS011;5009;50.656;7.188;2023-02-11T06:15:13;33.00;;;24.70;;
9940;SDS011;5009;50.656;7.188;2023-02-11T06:17:38;34.07;;;25.67;;
9940;SDS011;5009;50.656;7.188;2023-02-11T06:20:04;32.80;;;24.70;;
9940;SDS011;5009;50.656;7.188;2023-02-11T06:22:32;31.43;;;24.40;;
9940;SDS011;5009;50.656;7.188;2023-02-11T06:24:58;35.03;;;26.60;;
9940;SDS011;5009;50.656;7.188;2023-02-11T06:27:23;36.50;;;27.10;;
9940;SDS011;5009;50.656;7.188;2023-02-11T06:29:49;37.93;;;28.13;;
9940;SDS011;5009;50.656;7.188;2023-02-11T06:32:16;39.27;;;28.40;;
9940;SDS011;5009;50.656;7.188;2023-02-11T06:34:42;36.13;;;28.60;;
9940;SDS011;5009;50.656;7.188;2023-02-11T06:37:08;40.00;;;29.93;;
9940;SDS011;5009;50.656;7.188;2023-02-11T06:39:34;37.83;;;28.87;;
9940;SDS011;5009;50.656;7.188;2023-02-11T06:41:59;39.50;;;29.13;;
9940;SDS011;5009;50.656;7.188;2023-02-11T06:44:25;40.10;;;29.67;;
9940;SDS011;5009;50.656;7.188;2023-02-11T06:46:50;44.13;;;30.80;;
9940;SDS011;5009;50.656;7.188;2023-02-11T06:49:16;39.80;;;29.67;;
9940;SDS011;5009;50.656;7.188;2023-02-11T06:51:41;42.03;;;29.63;;
9940;SDS011;5009;50.656;7.188;2023-02-11T06:54:07;41.93;;;31.93;;
9940;SDS011;5009;50.656;7.188;2023-02-11T06:56:33;40.77;;;29.63;;
9940;SDS011;5009;50.656;7.188;2023-02-11T06:58:59;37.40;;;28.93;;
9940;SDS011;5009;50.656;7.188;2023-02-11T07:01:25;41.53;;;29.63;;
9940;SDS011;5009;50.656;7.188;2023-02-11T07:03:51;41.50;;;29.87;;
9940;SDS011;5009;50.656;7.188;2023-02-11T07:06:18;37.50;;;28.43;;
9940;SDS011;5009;50.656;7.188;2023-02-11T07:08:45;44.03;;;31.17;;
9940;SDS011;5009;50.656;7.188;2023-02-11T07:11:12;37.97;;;28.83;;
9940;SDS011;5009;50.656;7.188;2023-02-11T07:13:40;40.23;;;29.13;;
9940;SDS011;5009;50.656;7.188;2023-02-11T07:16:07;41.60;;;28.47;;
9940;SDS011;5009;50.656;7.188;2023-02-11T07:18:34;39.87;;;29.40;;
9940;SDS011;5009;50.656;7.188;2023-02-11T07:21:02;41.73;;;30.63;;
9940;SDS011;5009;50.656;7.188;2023-02-11T07:23:29;37.43;;;27.57;;
9940;SDS011;5009;50.656;7.188;2023-02-11T07:25:55;39.03;;;28.87;;
9940;SDS011;5009;50.656;7.188;2023-02-11T07:28:21;39.73;;;29.40;;
9940;SDS011;5009;50.656;7.188;2023-02-11T07:30:46;36.13;;;28.37;;
9940;SDS011;5009;50.656;7.188;2023-02-11T07:33:12;39.77;;;29.73;;
9940;SDS011;5009;50.656;7.188;2023-02-11T07:35:37;39.47;;;29.30;;
9940;SDS011;5009;50.656;7.188;2023-02-11T07:38:03;38.60;;;29.27;;
9940;SDS011;5009;50.656;7.188;2023-02-11T07:40:28;40.03;;;28.73;;
9940;SDS011;5009;50.656;7.188;2023-02-11T07:42:55;42.03;;;30.53;;
9940;SDS011;5009;50.656;7.188;2023-02-11T07:45:21;38.60;;;29.27;;
9940;SDS011;5009;50.656;7.188;2023-02-11T07:47:46;44.03;;;31.90;;
9940;SDS011;5009;50.656;7.188;2023-02-11T07:50:12;40.80;;;30.60;;
9940;SDS011;5009;50.656;7.188;2023-02-11T07:52:38;45.73;;;31.23;;
9940;SDS011;5009;50.656;7.188;2023-02-11T07:55:03;38.30;;;29.63;;
9940;SDS011;5009;50.656;7.188;2023-02-11T07:57:29;43.53;;;30.10;;
9940;SDS011;5009;50.656;7.188;2023-02-11T07:59:54;38.50;;;30.07;;
9940;SDS011;5009;50.656;7.188;2023-02-11T08:02:20;39.63;;;29.60;;
9940;SDS011;5009;50.656;7.188;2023-02-11T08:04:46;41.80;;;31.00;;
9940;SDS011;5009;50.656;7.188;2023-02-11T08:07:15;40.10;;;29.50;;
9940;SDS011;5009;50.656;7.188;2023-02-11T08:09:41;42.67;;;30.80;;
9940;SDS011;5009;50.656;7.188;2023-02-11T08:12:07;39.50;;;30.57;;
9940;SDS011;5009;50.656;7.188;2023-02-11T08:14:32;35.63;;;28.53;;
9940;SDS011;5009;50.656;7.188;2023-02-11T08:16:58;36.87;;;29.23;;
9940;SDS011;5009;50.656;7.188;2023-02-11T08:19:23;43.43;;;30.40;;
9940;SDS011;5009;50.656;7.188;2023-02-11T08:21:49;43.80;;;30.67;;
9940;SDS011;5009;50.656;7.188;2023-02-11T08:24:18;42.93;;;30.83;;
9940;SDS011;5009;50.656;7.188;2023-02-11T08:26:44;39.93;;;31.00;;
9940;SDS011;5009;50.656;7.188;2023-02-11T08:29:10;40.33;;;31.30;;
9940;SDS011;5009;50.656;7.188;2023-02-11T08:31:39;42.47;;;31.07;;
9940;SDS011;5009;50.656;7.188;2023-02-11T08:34:06;38.90;;;30.53;;
9940;SDS011;5009;50.656;7.188;2023-02-11T08:36:33;41.53;;;32.07;;
9940;SDS011;5009;50.656;7.188;2023-02-11T08:39:01;42.07;;;31.10;;
9940;SDS011;5009;50.656;7.188;2023-02-11T08:41:29;39.30;;;29.97;;
9940;SDS011;5009;50.656;7.188;2023-02-11T08:43:56;43.20;;;32.53;;
9940;SDS011;5009;50.656;7.188;2023-02-11T08:46:22;43.73;;;31.90;;
9940;SDS011;5009;50.656;7.188;2023-02-11T08:48:48;40.87;;;31.33;;
9940;SDS011;5009;50.656;7.188;2023-02-11T08:51:19;42.53;;;32.73;;
9940;SDS011;5009;50.656;7.188;2023-02-11T08:53:47;44.70;;;33.13;;
9940;SDS011;5009;50.656;7.188;2023-02-11T08:56:13;41.97;;;32.17;;
9940;SDS011;5009;50.656;7.188;2023-02-11T08:58:39;39.43;;;31.10;;
9940;SDS011;5009;50.656;7.188;2023-02-11T09:01:09;41.20;;;31.33;;
9940;SDS011;5009;50.656;7.188;2023-02-11T09:03:35;41.33;;;31.53;;
9940;SDS011;5009;50.656;7.188;2023-02-11T09:06:03;40.27;;;30.73;;
9940;SDS011;5009;50.656;7.188;2023-02-11T09:08:30;42.70;;;31.30;;
9940;SDS011;5009;50.656;7.188;2023-02-11T09:10:56;41.87;;;31.60;;
9940;SDS011;5009;50.656;7.188;2023-02-11T09:13:21;43.17;;;30.57;;
9940;SDS011;5009;50.656;7.188;2023-02-11T09:15:47;41.03;;;32.07;;
9940;SDS011;5009;50.656;7.188;2023-02-11T09:18:12;47.83;;;32.73;;
9940;SDS011;5009;50.656;7.188;2023-02-11T09:20:38;44.67;;;33.50;;
9940;SDS011;5009;50.656;7.188;2023-02-11T09:23:03;40.97;;;32.83;;
9940;SDS011;5009;50.656;7.188;2023-02-11T09:25:29;46.40;;;33.93;;
9940;SDS011;5009;50.656;7.188;2023-02-11T09:27:54;41.10;;;31.93;;
9940;SDS011;5009;50.656;7.188;2023-02-11T09:30:20;42.83;;;32.53;;
9940;SDS011;5009;50.656;7.188;2023-02-11T09:32:46;41.97;;;31.03;;
9940;SDS011;5009;50.656;7.188;2023-02-11T09:35:11;41.37;;;30.93;;
9940;SDS011;5009;50.656;7.188;2023-02-11T09:37:37;41.87;;;31.63;;
9940;SDS011;5009;50.656;7.188;2023-02-11T09:40:03;46.57;;;33.43;;
9940;SDS011;5009;50.656;7.188;2023-02-11T09:45:17;40.57;;;32.90;;
9940;SDS011;5009;50.656;7.188;2023-02-11T09:47:52;42.57;;;32.27;;
9940;SDS011;5009;50.656;7.188;2023-02-11T09:50:28;41.30;;;31.90;;
9940;SDS011;5009;50.656;7.188;2023-02-11T09:53:06;42.30;;;32.37;;
9940;SDS011;5009;50.656;7.188;2023-02-11T09:55:45;39.93;;;31.90;;
9940;SDS011;5009;50.656;7.188;2023-02-11T09:58:19;41.63;;;32.20;;
9940;SDS011;5009;50.656;7.188;2023-02-11T10:03:38;42.73;;;32.57;;
9940;SDS011;5009;50.656;7.188;2023-02-11T10:20:19;44.77;;;31.93;;
9940;SDS011;5009;50.656;7.188;2023-02-11T10:22:47;44.37;;;33.17;;
9940;SDS011;5009;50.656;7.188;2023-02-11T10:28:00;41.00;;;32.17;;
9940;SDS011;5009;50.656;7.188;2023-02-11T10:31:01;43.47;;;33.20;;
9940;SDS011;5009;50.656;7.188;2023-02-11T10:33:38;42.63;;;30.43;;
9940;SDS011;5009;50.656;7.188;2023-02-11T10:36:16;40.60;;;31.03;;
9940;SDS011;5009;50.656;7.188;2023-02-11T10:38:43;38.00;;;30.73;;
9940;SDS011;5009;50.656;7.188;2023-02-11T10:41:09;41.97;;;31.23;;
9940;SDS011;5009;50.656;7.188;2023-02-11T10:43:54;40.57;;;31.30;;
9940;SDS011;5009;50.656;7.188;2023-02-11T10:46:24;39.80;;;30.83;;
9940;SDS011;5009;50.656;7.188;2023-02-11T10:48:56;43.03;;;33.60;;
9940;SDS011;5009;50.656;7.188;2023-02-11T10:51:22;42.47;;;31.60;;
9940;SDS011;5009;50.656;7.188;2023-02-11T10:54:08;40.47;;;31.90;;
9940;SDS011;5009;50.656;7.188;2023-02-11T11:01:52;38.73;;;31.20;;
9940;SDS011;5009;50.656;7.188;2023-02-11T11:07:08;39.83;;;31.07;;
9940;SDS011;5009;50.656;7.188;2023-02-11T11:09:50;38.17;;;31.20;;
9940;SDS011;5009;50.656;7.188;2023-02-11T11:12:45;35.90;;;29.03;;
9940;SDS011;5009;50.656;7.188;2023-02-11T11:15:17;42.00;;;31.77;;
9940;SDS011;5009;50.656;7.188;2023-02-11T11:17:48;39.90;;;30.93;;
9940;SDS011;5009;50.656;7.188;2023-02-11T11:22:40;42.03;;;31.67;;
9940;SDS011;5009;50.656;7.188;2023-02-11T11:25:23;38.30;;;30.00;;
9940;SDS011;5009;50.656;7.188;2023-02-11T11:27:52;38.63;;;30.43;;
9940;SDS011;5009;50.656;7.188;2023-02-11T11:30:22;40.67;;;30.23;;
9940;SDS011;5009;50.656;7.188;2023-02-11T11:32:52;41.77;;;30.57;;
9940;SDS011;5009;50.656;7.188;2023-02-11T11:35:27;39.17;;;31.27;;
9940;SDS011;5009;50.656;7.188;2023-02-11T11:37:59;38.03;;;30.13;;
9940;SDS011;5009;50.656;7.188;2023-02-11T11:40:27;42.83;;;33.50;;
9940;SDS011;5009;50.656;7.188;2023-02-11T11:43:02;40.97;;;32.93;;
9940;SDS011;5009;50.656;7.188;2023-02-11T11:45:37;35.50;;;30.27;;
9940;SDS011;5009;50.656;7.188;2023-02-11T11:48:11;37.53;;;30.57;;
9940;SDS011;5009;50.656;7.188;2023-02-11T11:50:59;33.93;;;28.57;;
9940;SDS011;5009;50.656;7.188;2023-02-11T11:53:30;41.33;;;29.90;;
9940;SDS011;5009;50.656;7.188;2023-02-11T11:56:03;38.87;;;29.17;;
9940;SDS011;5009;50.656;7.188;2023-02-11T11:58:32;37.13;;;29.77;;
9940;SDS011;5009;50.656;7.188;2023-02-11T12:01:11;38.20;;;30.60;;
9940;SDS011;5009;50.656;7.188;2023-02-11T12:04:19;37.30;;;29.33;;
9940;SDS011;5009;50.656;7.188;2023-02-11T12:07:09;34.00;;;28.57;;
9940;SDS011;5009;50.656;7.188;2023-02-11T12:10:04;36.80;;;29.50;;
9940;SDS011;5009;50.656;7.188;2023-02-11T12:12:54;34.50;;;27.83;;
9940;SDS011;5009;50.656;7.188;2023-02-11T12:15:35;32.87;;;27.10;;
9940;SDS011;5009;50.656;7.188;2023-02-11T12:26:20;32.03;;;26.63;;
9940;SDS011;5009;50.656;7.188;2023-02-11T12:32:38;32.73;;;25.87;;
9940;SDS011;5009;50.656;7.188;2023-02-11T12:38:21;35.30;;;27.93;;
9940;SDS011;5009;50.656;7.188;2023-02-11T12:43:36;31.07;;;25.60;;
9940;SDS011;5009;50.656;7.188;2023-02-11T12:46:14;33.77;;;27.87;;
9940;SDS011;5009;50.656;7.188;2023-02-11T12:54:45;31.70;;;26.23;;
9940;SDS011;5009;50.656;7.188;2023-02-11T12:57:25;31.03;;;24.67;;
9940;SDS011;5009;50.656;7.188;2023-02-11T13:00:06;29.83;;;24.63;;
9940;SDS011;5009;50.656;7.188;2023-02-11T13:03:06;31.60;;;25.93;;
9940;SDS011;5009;50.656;7.188;2023-02-11T13:05:57;30.87;;;23.77;;
9940;SDS011;5009;50.656;7.188;2023-02-11T13:08:34;28.17;;;23.60;;
9940;SDS011;5009;50.656;7.188;2023-02-11T13:11:22;31.10;;;25.03;;
9940;SDS011;5009;50.656;7.188;2023-02-11T13:13:55;34.73;;;26.07;;
9940;SDS011;5009;50.656;7.188;2023-02-11T13:16:41;32.30;;;25.67;;
9940;SDS011;5009;50.656;7.188;2023-02-11T13:29:54;27.83;;;23.73;;
9940;SDS011;5009;50.656;7.188;2023-02-11T13:35:27;28.57;;;24.10;;
9940;SDS011;5009;50.656;7.188;2023-02-11T13:37:58;30.03;;;24.87;;
9940;SDS011;5009;50.656;7.188;2023-02-11T13:40:33;26.67;;;23.57;;
9940;SDS011;5009;50.656;7.188;2023-02-11T13:43:01;29.87;;;24.97;;
9940;SDS011;5009;50.656;7.188;2023-02-11T13:45:30;27.90;;;24.10;;
9940;SDS011;5009;50.656;7.188;2023-02-11T13:48:06;30.27;;;24.83;;
9940;SDS011;5009;50.656;7.188;2023-02-11T13:51:08;26.30;;;23.27;;
9940;SDS011;5009;50.656;7.188;2023-02-11T13:53:43;26.13;;;22.60;;
9940;SDS011;5009;50.656;7.188;2023-02-11T13:56:28;26.77;;;23.53;;
9940;SDS011;5009;50.656;7.188;2023-02-11T13:59:01;24.97;;;22.27;;
9940;SDS011;5009;50.656;7.188;2023-02-11T14:04:33;25.43;;;21.63;;
9940;SDS011;5009;50.656;7.188;2023-02-11T14:07:24;24.90;;;22.23;;
9940;SDS011;5009;50.656;7.188;2023-02-11T14:13:12;26.40;;;21.40;;
9940;SDS011;5009;50.656;7.188;2023-02-11T14:16:05;26.97;;;21.93;;
9940;SDS011;5009;50.656;7.188;2023-02-11T14:18:37;27.80;;;22.93;;
9940;SDS011;5009;50.656;7.188;2023-02-11T14:23:37;27.10;;;22.77;;
9940;SDS011;5009;50.656;7.188;2023-02-11T14:26:07;25.20;;;22.50;;
9940;SDS011;5009;50.656;7.188;2023-02-11T14:28:37;25.93;;;22.10;;
9940;SDS011;5009;50.656;7.188;2023-02-11T14:41:43;24.47;;;21.07;;
9940;SDS011;5009;50.656;7.188;2023-02-11T14:44:17;29.00;;;24.07;;
9940;SDS011;5009;50.656;7.188;2023-02-11T14:46:47;25.30;;;21.97;;
9940;SDS011;5009;50.656;7.188;2023-02-11T14:49:22;25.50;;;22.63;;
9940;SDS011;5009;50.656;7.188;2023-02-11T14:51:52;26.90;;;23.97;;
9940;SDS011;5009;50.656;7.188;2023-02-11T14:54:21;29.53;;;24.07;;
9940;SDS011;5009;50.656;7.188;2023-02-11T14:57:07;30.53;;;24.73;;
9940;SDS011;5009;50.656;7.188;2023-02-11T14:59:33;30.67;;;27.13;;
9940;SDS011;5009;50.656;7.188;2023-02-11T15:01:59;32.90;;;28.13;;
9940;SDS011;5009;50.656;7.188;2023-02-11T15:04:31;31.43;;;27.20;;
9940;SDS011;5009;50.656;7.188;2023-02-11T15:07:03;36.07;;;29.07;;
9940;SDS011;5009;50.656;7.188;2023-02-11T15:09:32;34.30;;;27.97;;
9940;SDS011;5009;50.656;7.188;2023-02-11T15:12:04;31.33;;;27.87;;
9940;SDS011;5009;50.656;7.188;2023-02-11T15:14:43;34.10;;;28.90;;
9940;SDS011;5009;50.656;7.188;2023-02-11T15:17:12;35.43;;;27.17;;
9940;SDS011;5009;50.656;7.188;2023-02-11T15:19:43;31.23;;;27.67;;
9940;SDS011;5009;50.656;7.188;2023-02-11T15:22:21;31.23;;;26.23;;
9940;SDS011;5009;50.656;7.188;2023-02-11T15:24:57;34.10;;;28.60;;
9940;SDS011;5009;50.656;7.188;2023-02-11T15:27:40;33.37;;;28.13;;
9940;SDS011;5009;50.656;7.188;2023-02-11T15:32:45;38.57;;;31.30;;
9940;SDS011;5009;50.656;7.188;2023-02-11T15:35:11;36.47;;;29.50;;
9940;SDS011;5009;50.656;7.188;2023-02-11T15:37:40;35.77;;;30.73;;
9940;SDS011;5009;50.656;7.188;2023-02-11T15:40:19;37.97;;;30.03;;
9940;SDS011;5009;50.656;7.188;2023-02-11T15:45:40;42.37;;;33.70;;
9940;SDS011;5009;50.656;7.188;2023-02-11T15:50:47;34.97;;;28.90;;
9940;SDS011;5009;50.656;7.188;2023-02-11T15:53:20;34.63;;;29.03;;
9940;SDS011;5009;50.656;7.188;2023-02-11T15:55:49;36.30;;;29.33;;
9940;SDS011;5009;50.656;7.188;2023-02-11T15:58:16;33.30;;;29.70;;
9940;SDS011;5009;50.656;7.188;2023-02-11T16:00:46;32.30;;;28.20;;
9940;SDS011;5009;50.656;7.188;2023-02-11T16:03:20;36.23;;;31.37;;
9940;SDS011;5009;50.656;7.188;2023-02-11T16:05:47;33.43;;;28.57;;
9940;SDS011;5009;50.656;7.188;2023-02-11T16:08:23;35.47;;;29.83;;
9940;SDS011;5009;50.656;7.188;2023-02-11T16:10:56;31.77;;;27.27;;
9940;SDS011;5009;50.656;7.188;2023-02-11T16:13:23;32.17;;;26.83;;
9940;SDS011;5009;50.656;7.188;2023-02-11T16:15:56;31.93;;;26.90;;
9940;SDS011;5009;50.656;7.188;2023-02-11T16:18:38;30.70;;;26.63;;
9940;SDS011;5009;50.656;7.188;2023-02-11T16:21:13;34.30;;;27.97;;
9940;SDS011;5009;50.656;7.188;2023-02-11T16:23:41;34.57;;;28.97;;
9940;SDS011;5009;50.656;7.188;2023-02-11T16:26:21;33.00;;;26.83;;
9940;SDS011;5009;50.656;7.188;2023-02-11T16:31:35;43.50;;;33.63;;
9940;SDS011;5009;50.656;7.188;2023-02-11T16:34:06;44.03;;;36.47;;
9940;SDS011;5009;50.656;7.188;2023-02-11T16:36:37;38.70;;;33.30;;
9940;SDS011;5009;50.656;7.188;2023-02-11T16:39:02;35.73;;;31.27;;
9940;SDS011;5009;50.656;7.188;2023-02-11T16:41:28;36.23;;;30.27;;
9940;SDS011;5009;50.656;7.188;2023-02-11T16:43:55;36.20;;;30.60;;
9940;SDS011;5009;50.656;7.188;2023-02-11T16:46:22;38.40;;;30.33;;
9940;SDS011;5009;50.656;7.188;2023-02-11T16:48:48;34.87;;;29.90;;
9940;SDS011;5009;50.656;7.188;2023-02-11T16:51:13;33.63;;;29.23;;
9940;SDS011;5009;50.656;7.188;2023-02-11T16:53:39;33.50;;;29.80;;
9940;SDS011;5009;50.656;7.188;2023-02-11T16:56:04;34.97;;;30.63;;
9940;SDS011;5009;50.656;7.188;2023-02-11T16:58:30;36.63;;;29.83;;
9940;SDS011;5009;50.656;7.188;2023-02-11T17:00:56;37.47;;;29.60;;
9940;SDS011;5009;50.656;7.188;2023-02-11T17:03:22;34.57;;;30.77;;
9940;SDS011;5009;50.656;7.188;2023-02-11T17:05:50;38.27;;;30.80;;
9940;SDS011;5009;50.656;7.188;2023-02-11T17:08:15;37.90;;;32.20;;
9940;SDS011;5009;50.656;7.188;2023-02-11T17:10:41;37.33;;;31.60;;
9940;SDS011;5009;50.656;7.188;2023-02-11T17:13:06;34.37;;;30.07;;
9940;SDS011;5009;50.656;7.188;2023-02-11T17:15:32;39.87;;;31.33;;
9940;SDS011;5009;50.656;7.188;2023-02-11T17:17:58;39.57;;;32.60;;
9940;SDS011;5009;50.656;7.188;2023-02-11T17:20:24;41.30;;;32.63;;
9940;SDS011;5009;50.656;7.188;2023-02-11T17:22:49;40.33;;;33.53;;
9940;SDS011;5009;50.656;7.188;2023-02-11T17:25:16;44.03;;;33.97;;
9940;SDS011;5009;50.656;7.188;2023-02-11T17:27:42;40.87;;;31.73;;
9940;SDS011;5009;50.656;7.188;2023-02-11T17:30:08;39.10;;;32.73;;
9940;SDS011;5009;50.656;7.188;2023-02-11T17:32:35;43.23;;;34.87;;
9940;SDS011;5009;50.656;7.188;2023-02-11T17:35:01;36.70;;;31.40;;
9940;SDS011;5009;50.656;7.188;2023-02-11T17:37:27;38.60;;;30.03;;
9940;SDS011;5009;50.656;7.188;2023-02-11T17:39:53;34.70;;;30.70;;
9940;SDS011;5009;50.656;7.188;2023-02-11T17:42:18;39.40;;;29.50;;
9940;SDS011;5009;50.656;7.188;2023-02-11T17:44:44;35.73;;;28.93;;
9940;SDS011;5009;50.656;7.188;2023-02-11T17:47:10;35.33;;;29.43;;
9940;SDS011;5009;50.656;7.188;2023-02-11T17:49:37;36.10;;;29.10;;
9940;SDS011;5009;50.656;7.188;2023-02-11T17:52:03;36.37;;;28.77;;
9940;SDS011;5009;50.656;7.188;2023-02-11T17:54:28;32.90;;;27.93;;
9940;SDS011;5009;50.656;7.188;2023-02-11T17:56:54;36.13;;;28.97;;
9940;SDS011;5009;50.656;7.188;2023-02-11T17:59:20;37.87;;;29.63;;
9940;SDS011;5009;50.656;7.188;2023-02-11T18:01:45;36.73;;;29.70;;
9940;SDS011;5009;50.656;7.188;2023-02-11T18:04:13;35.60;;;29.30;;
9940;SDS011;5009;50.656;7.188;2023-02-11T18:06:41;43.03;;;30.27;;
9940;SDS011;5009;50.656;7.188;2023-02-11T18:09:07;42.53;;;30.80;;
9940;SDS011;5009;50.656;7.188;2023-02-11T18:11:34;38.23;;;31.73;;
9940;SDS011;5009;50.656;7.188;2023-02-11T18:14:01;41.03;;;32.23;;
9940;SDS011;5009;50.656;7.188;2023-02-11T18:16:28;36.90;;;30.70;;
9940;SDS011;5009;50.656;7.188;2023-02-11T18:18:55;38.60;;;30.43;;
9940;SDS011;5009;50.656;7.188;2023-02-11T18:21:21;37.57;;;31.23;;
9940;SDS011;5009;50.656;7.188;2023-02-11T18:23:48;36.60;;;29.60;;
9940;SDS011;5009;50.656;7.188;2023-02-11T18:26:14;36.13;;;30.90;;
9940;SDS011;5009;50.656;7.188;2023-02-11T18:28:41;40.33;;;32.53;;
9940;SDS011;5009;50.656;7.188;2023-02-11T18:31:07;37.77;;;30.83;;
9940;SDS011;5009;50.656;7.188;2023-02-11T18:33:34;43.07;;;33.13;;
9940;SDS011;5009;50.656;7.188;2023-02-11T18:36:06;40.07;;;32.97;;
9940;SDS011;5009;50.656;7.188;2023-02-11T18:38:34;41.33;;;32.37;;
9940;SDS011;5009;50.656;7.188;2023-02-11T18:41:00;37.10;;;32.20;;
9940;SDS011;5009;50.656;7.188;2023-02-11T18:43:25;35.40;;;30.37;;
9940;SDS011;5009;50.656;7.188;2023-02-11T18:45:55;39.57;;;31.57;;
9940;SDS011;5009;50.656;7.188;2023-02-11T18:48:21;41.77;;;29.80;;
9940;SDS011;5009;50.656;7.188;2023-02-11T18:50:47;37.43;;;30.67;;
9940;SDS011;5009;50.656;7.188;2023-02-11T18:53:13;34.97;;;30.60;;
9940;SDS011;5009;50.656;7.188;2023-02-11T18:55:42;36.03;;;31.40;;
9940;SDS011;5009;50.656;7.188;2023-02-11T18:58:08;44.60;;;33.30;;
9940;SDS011;5009;50.656;7.188;2023-02-11T19:00:35;42.83;;;33.70;;
9940;SDS011;5009;50.656;7.188;2023-02-11T19:03:02;42.30;;;31.40;;
9940;SDS011;5009;50.656;7.188;2023-02-11T19:05:27;38.23;;;31.87;;
9940;SDS011;5009;50.656;7.188;2023-02-11T19:07:57;39.43;;;32.80;;
9940;SDS011;5009;50.656;7.188;2023-02-11T19:10:24;39.80;;;32.87;;
9940;SDS011;5009;50.656;7.188;2023-02-11T19:12:53;39.77;;;32.67;;
9940;SDS011;5009;50.656;7.188;2023-02-11T19:15:20;37.67;;;31.17;;
9940;SDS011;5009;50.656;7.188;2023-02-11T19:17:47;39.03;;;31.77;;
9940;SDS011;5009;50.656;7.188;2023-02-11T19:20:12;37.63;;;32.03;;
9940;SDS011;5009;50.656;7.188;2023-02-11T19:22:38;40.13;;;33.07;;
9940;SDS011;5009;50.656;7.188;2023-02-11T19:25:03;36.97;;;31.07;;
9940;SDS011;5009;50.656;7.188;2023-02-11T19:27:29;40.07;;;31.80;;
9940;SDS011;5009;50.656;7.188;2023-02-11T19:29:55;40.37;;;33.57;;
9940;SDS011;5009;50.656;7.188;2023-02-11T19:32:20;40.70;;;34.23;;
9940;SDS011;5009;50.656;7.188;2023-02-11T19:34:46;42.23;;;32.17;;
9940;SDS011;5009;50.656;7.188;2023-02-11T19:37:11;40.77;;;34.27;;
9940;SDS011;5009;50.656;7.188;2023-02-11T19:39:38;40.43;;;32.30;;
9940;SDS011;5009;50.656;7.188;2023-02-11T19:42:04;38.33;;;30.53;;
9940;SDS011;5009;50.656;7.188;2023-02-11T19:44:30;40.73;;;33.83;;
9940;SDS011;5009;50.656;7.188;2023-02-11T19:46:55;42.83;;;33.00;;
9940;SDS011;5009;50.656;7.188;2023-02-11T19:49:21;41.47;;;31.93;;
9940;SDS011;5009;50.656;7.188;2023-02-11T19:51:52;39.00;;;32.57;;
9940;SDS011;5009;50.656;7.188;2023-02-11T19:54:19;37.33;;;31.50;;
9940;SDS011;5009;50.656;7.188;2023-02-11T19:56:45;38.07;;;32.17;;
9940;SDS011;5009;50.656;7.188;2023-02-11T19:59:11;40.20;;;31.47;;
9940;SDS011;5009;50.656;7.188;2023-02-11T20:01:39;40.27;;;32.73;;
9940;SDS011;5009;50.656;7.188;2023-02-11T20:04:05;42.33;;;33.70;;
9940;SDS011;5009;50.656;7.188;2023-02-11T20:06:32;41.50;;;33.27;;
9940;SDS011;5009;50.656;7.188;2023-02-11T20:09:00;42.50;;;33.07;;
9940;SDS011;5009;50.656;7.188;2023-02-11T20:11:31;39.60;;;31.03;;
9940;SDS011;5009;50.656;7.188;2023-02-11T20:13:57;41.03;;;31.70;;
9940;SDS011;5009;50.656;7.188;2023-02-11T20:16:24;37.00;;;32.23;;
9940;SDS011;5009;50.656;7.188;2023-02-11T20:18:50;39.07;;;32.60;;
9940;SDS011;5009;50.656;7.188;2023-02-11T20:21:18;39.77;;;31.57;;
9940;SDS011;5009;50.656;7.188;2023-02-11T20:23:49;43.83;;;34.53;;
9940;SDS011;5009;50.656;7.188;2023-02-11T20:26:19;40.03;;;32.80;;
9940;SDS011;5009;50.656;7.188;2023-02-11T20:28:47;42.83;;;34.63;;
9940;SDS011;5009;50.656;7.188;2023-02-11T20:31:14;37.30;;;32.43;;
9940;SDS011;5009;50.656;7.188;2023-02-11T20:33:40;40.43;;;32.60;;
9940;SDS011;5009;50.656;7.188;2023-02-11T20:36:07;41.20;;;33.53;;
9940;SDS011;5009;50.656;7.188;2023-02-11T20:38:55;48.27;;;32.67;;
9940;SDS011;5009;50.656;7.188;2023-02-11T20:41:23;37.53;;;30.60;;
9940;SDS011;5009;50.656;7.188;2023-02-11T20:43:54;39.03;;;32.43;;
9940;SDS011;5009;50.656;7.188;2023-02-11T20:46:22;39.07;;;30.70;;
9940;SDS011;5009;50.656;7.188;2023-02-11T20:48:49;42.00;;;31.90;;
9940;SDS011;5009;50.656;7.188;2023-02-11T20:51:20;38.97;;;32.07;;
9940;SDS011;5009;50.656;7.188;2023-02-11T20:53:48;37.13;;;29.20;;
9940;SDS011;5009;50.656;7.188;2023-02-11T20:56:16;40.17;;;29.77;;
9940;SDS011;5009;50.656;7.188;2023-02-11T20:58:43;40.67;;;30.37;;
9940;SDS011;5009;50.656;7.188;2023-02-11T21:01:10;37.30;;;29.13;;
9940;SDS011;5009;50.656;7.188;2023-02-11T21:03:58;36.10;;;30.20;;
9940;SDS011;5009;50.656;7.188;2023-02-11T21:06:29;40.80;;;31.83;;
9940;SDS011;5009;50.656;7.188;2023-02-11T21:08:59;38.80;;;30.00;;
9940;SDS011;5009;50.656;7.188;2023-02-11T21:11:25;32.70;;;27.90;;
9940;SDS011;5009;50.656;7.188;2023-02-11T21:13:50;37.57;;;30.13;;
9940;SDS011;5009;50.656;7.188;2023-02-11T21:16:17;40.77;;;33.27;;
9940;SDS011;5009;50.656;7.188;2023-02-11T21:18:46;36.73;;;29.77;;
9940;SDS011;5009;50.656;7.188;2023-02-11T21:21:13;36.00;;;29.37;;
9940;SDS011;5009;50.656;7.188;2023-02-11T21:23:39;37.80;;;30.07;;
9940;SDS011;5009;50.656;7.188;2023-02-11T21:26:05;35.67;;;30.50;;
9940;SDS011;5009;50.656;7.188;2023-02-11T21:28:31;35.77;;;29.83;;
9940;SDS011;5009;50.656;7.188;2023-02-11T21:30:57;34.90;;;28.20;;
9940;SDS011;5009;50.656;7.188;2023-02-11T21:33:23;37.03;;;30.60;;
9940;SDS011;5009;50.656;7.188;2023-02-11T21:35:54;38.40;;;30.13;;
9940;SDS011;5009;50.656;7.188;2023-02-11T21:38:20;36.60;;;29.70;;
9940;SDS011;5009;50.656;7.188;2023-02-11T21:40:46;38.17;;;29.03;;
9940;SDS011;5009;50.656;7.188;2023-02-11T21:43:12;35.17;;;29.07;;